Time;durP1;ratioP1;P1;durP2;ratioP2;P2;SDS_P1;SDS_P2;PMS_P1;PMS_P2;Temp;Humidity;BMP_temperature;BMP_pressure;BME280_temperature;BME280_humidity;BME280_pressure;Samples;Min_cycle;Max_cycle;Signal;HPM_P1;HPM_P2
2023/10/15 00:00:24;;;;;;;5.88;1.13;;;8.20;99.90;;;6.80;87.08;100387.56;6285573;22;20028;-81
2023/10/15 00:02:54;;;;;;;12.00;1.30;;;8.20;99.90;;;6.78;86.50;100393.72;6285716;22;20456;-80
2023/10/15 00:05:23;;;;;;;8.63;1.73;;;8.20;99.90;;;6.81;87.06;100387.50;6286646;22;20003;-80
2023/10/15 00:07:50;;;;;;;8.60;1.00;;;8.20;99.90;;;6.81;87.25;100397.13;6311550;22;20007;-81
2023/10/15 00:10:22;;;;;;;6.57;1.20;;;8.10;99.90;;;6.77;86.99;100394.59;6285634;22;20060;-82
2023/10/15 00:12:51;;;;;;;7.93;1.02;;;8.10;99.90;;;6.73;87.55;100384.31;6287561;22;20009;-80
2023/10/15 00:15:23;;;;;;;11.65;1.27;;;8.10;99.90;;;6.70;86.97;100390.50;6286052;22;19998;-82
2023/10/15 00:18:09;;;;;;;8.80;1.35;;;8.10;99.90;;;6.67;88.02;100388.00;6286165;22;20007;-79
2023/10/15 00:20:36;;;;;;;11.77;1.10;;;8.00;99.90;;;6.63;88.05;100396.88;6288292;22;20097;-82
2023/10/15 00:23:04;;;;;;;5.53;0.98;;;8.00;99.90;;;6.59;88.20;100395.28;6285151;22;20017;-81
2023/10/15 00:25:47;;;;;;;10.90;1.52;;;;;;;6.60;88.61;100403.97;6285928;22;20017;-80
2023/10/15 00:28:20;;;;;;;14.25;1.25;;;8.00;99.90;;;6.57;88.50;100397.09;6310367;22;20006;-81
2023/10/15 00:30:46;;;;;;;6.28;1.23;;;8.00;99.90;;;6.54;88.76;100395.44;6311456;22;20002;-82
2023/10/15 00:33:12;;;;;;;5.68;1.00;;;7.90;99.90;;;6.51;88.75;100406.00;6311462;22;20003;-82
2023/10/15 00:35:40;;;;;;;8.55;0.93;;;7.90;99.90;;;6.53;88.87;100405.97;6285098;22;20007;-80
2023/10/15 00:38:15;;;;;;;7.70;1.08;;;8.00;99.90;;;6.54;88.83;100408.53;6311829;22;19998;-83
2023/10/15 00:40:41;;;;;;;9.75;1.23;;;7.90;99.90;;;6.55;89.22;100406.75;6313830;22;20002;-81
2023/10/15 00:43:12;;;;;;;9.10;1.35;;;8.00;99.90;;;6.56;89.18;100408.47;6311362;22;20461;-82
2023/10/15 00:45:43;;;;;;;12.00;1.63;;;8.00;99.90;;;6.55;89.53;100399.75;6312570;22;20022;-81
2023/10/15 00:48:56;;;;;;;6.82;1.25;;;7.90;99.90;;;6.55;88.93;100398.91;6338783;22;20002;-80
2023/10/15 00:51:13;;;;;;;7.57;0.95;;;7.90;99.90;;;6.54;89.47;100399.81;6314799;22;20081;-80
2023/10/15 00:53:51;;;;;;;7.03;0.90;;;7.90;99.90;;;6.52;89.50;100402.50;6311522;22;20081;-81
2023/10/15 00:56:33;;;;;;;8.70;1.55;;;7.90;99.90;;;6.52;89.25;100404.22;6286431;22;20014;-82
2023/10/15 01:01:54;;;;;;;6.68;0.90;;;7.90;99.90;;;6.47;89.66;100409.63;6320798;22;20432;-82
2023/10/15 01:04:32;;;;;;;9.15;1.15;;;7.80;99.90;;;6.45;89.94;100415.81;6310522;22;20007;-80
2023/10/15 01:07:00;;;;;;;6.35;1.05;;;7.80;99.90;;;6.40;89.74;100407.28;6287646;22;20324;-81
2023/10/15 01:09:29;;;;;;;7.32;1.10;;;7.80;99.90;;;6.40;90.45;100408.16;6286072;22;20002;-81
2023/10/15 01:12:23;;;;;;;5.40;0.90;;;7.80;99.90;;;6.39;90.46;100416.88;6286250;22;19999;-82
2023/10/15 01:14:47;;;;;;;9.38;1.58;;;7.70;99.90;;;6.35;90.69;100418.75;6315508;22;20010;-80
2023/10/15 01:17:13;;;;;;;2.88;0.50;;;7.70;99.90;;;6.38;90.70;100419.56;6339389;22;20003;-81
2023/10/15 01:19:43;;;;;;;7.05;0.80;;;7.70;99.90;;;6.34;90.86;100417.03;6311599;22;20214;-81
2023/10/15 01:22:17;;;;;;;4.93;0.77;;;7.70;99.90;;;6.32;91.10;100418.00;6312045;22;20010;-82
2023/10/15 01:24:53;;;;;;;7.35;0.80;;;7.70;99.90;;;6.27;91.25;100427.78;6313333;22;20343;-79
2023/10/15 01:27:36;;;;;;;6.15;0.60;;;7.70;99.90;;;6.27;91.57;100422.53;6287181;22;20007;-83
2023/10/15 01:30:09;;;;;;;2.38;0.80;;;7.70;99.90;;;6.26;91.66;100421.66;6288947;22;20013;-81
2023/10/15 01:32:38;;;;;;;8.48;0.80;;;7.60;99.90;;;6.24;91.68;100423.50;6287666;22;20507;-80
2023/10/15 01:35:10;;;;;;;9.45;1.10;;;7.60;99.90;;;6.23;91.50;100428.78;6311445;22;20352;-82
2023/10/15 01:37:44;;;;;;;7.13;1.05;;;7.60;99.90;;;6.22;92.23;100424.44;6286795;22;20006;-82
2023/10/15 01:42:42;;;;;;;5.72;1.00;;;;;;;6.20;91.85;100432.34;6311662;22;20034;-81
2023/10/15 01:45:13;;;;;;;10.68;0.85;;;7.60;99.90;;;6.21;92.29;100430.59;6312027;22;20013;-80
2023/10/15 01:50:23;;;;;;;10.15;1.00;;;7.50;99.90;;;6.12;92.54;100429.13;6316167;22;20034;-81
2023/10/15 01:53:00;;;;;;;9.60;0.93;;;7.50;99.90;;;6.10;92.92;100425.72;6286904;22;20217;-81
2023/10/15 01:55:29;;;;;;;9.57;0.95;;;7.50;99.90;;;6.10;92.91;100420.50;6287859;22;20015;-82
2023/10/15 01:58:03;;;;;;;5.50;1.10;;;;;;;6.08;93.39;100424.91;6285043;22;20006;-81
2023/10/15 02:00:53;;;;;;;9.05;1.08;;;7.50;99.90;;;6.10;93.25;100425.72;6311953;22;20061;-80
2023/10/15 02:03:18;;;;;;;4.75;0.70;;;7.40;99.90;;;6.04;93.71;100413.69;6314488;22;20011;-80
2023/10/15 02:05:45;;;;;;;3.95;0.80;;;7.40;99.90;;;6.00;94.10;100419.91;6284892;22;20002;-82
2023/10/15 02:08:23;;;;;;;6.40;0.98;;;7.40;99.90;;;6.01;93.98;100418.19;6284519;22;20010;-81
2023/10/15 02:10:49;;;;;;;3.92;0.70;;;7.40;99.90;;;6.01;94.40;100421.66;6312795;22;19995;-80
2023/10/15 02:13:22;;;;;;;3.08;0.70;;;7.40;99.90;;;6.02;94.28;100406.81;6339833;22;20366;-82
2023/10/15 02:15:49;;;;;;;5.30;0.60;;;7.40;99.90;;;6.01;94.50;100411.19;6285752;22;20086;-79
2023/10/15 02:18:17;;;;;;;9.50;1.25;;;7.40;99.90;;;6.02;93.97;100414.66;6284592;22;19999;-82
2023/10/15 02:23:19;;;;;;;7.35;0.85;;;7.40;99.90;;;5.98;93.80;100408.66;6311903;22;20006;-80
2023/10/15 02:26:07;;;;;;;7.72;0.80;;;7.40;99.90;;;5.98;94.02;100406.03;6311467;22;20048;-81
2023/10/15 02:28:32;;;;;;;3.80;0.50;;;7.30;99.90;;;5.97;94.11;100398.28;6337198;22;20026;-81
2023/10/15 02:31:22;;;;;;;2.28;0.38;;;7.40;99.90;;;5.97;93.90;100395.66;6310385;22;19998;-80
2023/10/15 02:33:45;;;;;;;4.93;0.93;;;7.30;99.90;;;5.94;94.01;100402.69;6315544;22;20007;-82
2023/10/15 02:36:16;;;;;;;5.15;0.63;;;7.30;99.90;;;5.91;94.05;100402.75;6311323;22;20003;-80
2023/10/15 02:38:56;;;;;;;5.72;0.60;;;7.30;99.90;;;5.92;93.76;100395.78;6285405;22;20003;-82
2023/10/15 02:41:30;;;;;;;3.70;0.63;;;7.30;99.90;;;5.92;94.30;100395.78;6288341;22;20010;-81
2023/10/15 02:43:59;;;;;;;5.18;0.68;;;7.30;99.90;;;5.88;94.10;100399.41;6288116;22;20342;-82
2023/10/15 02:46:36;;;;;;;2.72;0.50;;;7.30;99.90;;;5.85;94.43;100394.25;6339374;22;20021;-82
2023/10/15 02:49:15;;;;;;;3.78;0.47;;;7.30;99.90;;;5.86;94.60;100396.81;6313088;22;19999;-82
2023/10/15 02:51:45;;;;;;;7.70;0.95;;;7.30;99.90;;;5.83;94.54;100396.94;6313174;22;20003;-80
2023/10/15 02:54:37;;;;;;;5.05;0.60;;;7.30;99.90;;;5.84;94.48;100408.25;6314008;22;20003;-80
2023/10/15 02:57:03;;;;;;;3.55;0.60;;;7.20;99.90;;;5.81;95.44;100401.34;6319210;22;20003;-82
2023/10/15 02:59:31;;;;;;;8.07;0.52;;;7.20;99.90;;;5.80;95.18;100404.00;6312230;22;20021;-81
2023/10/15 03:02:06;;;;;;;2.33;0.47;;;7.20;99.90;;;5.79;95.57;100407.50;6313228;22;20080;-79
2023/10/15 03:04:37;;;;;;;5.60;0.60;;;7.20;99.90;;;5.77;95.59;100412.81;6288457;22;20054;-81
2023/10/15 03:07:45;;;;;;;2.05;0.50;;;7.20;99.90;;;5.79;96.01;100415.34;6287710;22;20003;-81
2023/10/15 03:09:56;;;;;;;3.50;0.70;;;7.10;99.90;;;5.76;96.08;100414.53;6302463;22;20006;-80
2023/10/15 03:12:23;;;;;;;4.72;0.63;;;7.20;99.90;;;5.73;96.14;100414.66;6288066;22;20037;-82
2023/10/15 03:14:49;;;;;;;1.65;0.30;;;7.10;99.90;;;5.70;96.34;100408.66;6312891;22;20377;-80
2023/10/15 03:17:51;;;;;;;3.55;0.57;;;7.10;99.90;;;5.71;96.57;100418.22;6287043;22;20018;-80
2023/10/15 03:22:45;;;;;;;7.25;0.77;;;7.10;99.90;;;5.68;96.83;100420.91;6341288;22;20102;-82
2023/10/15 03:25:22;;;;;;;3.63;0.80;;;7.10;99.90;;;5.69;96.93;100420.03;6313340;22;20033;-80
2023/10/15 03:27:47;;;;;;;5.88;0.77;;;7.10;99.90;;;5.65;97.19;100424.47;6288112;22;20774;-81
2023/10/15 03:30:16;;;;;;;3.67;0.47;;;7.10;99.90;;;5.68;97.73;100419.19;6312180;22;20007;-82
2023/10/15 03:32:47;;;;;;;3.70;0.68;;;7.10;99.90;;;5.67;97.71;100422.69;6286933;22;20082;-82
2023/10/15 03:40:38;;;;;;;5.85;0.70;;;;;;;5.66;97.96;100425.31;6370633;22;20026;-82
2023/10/15 03:43:06;;;;;;;6.15;0.70;;;7.10;99.90;;;5.66;98.18;100433.16;6370809;22;20006;-82
2023/10/15 03:45:51;;;;;;;4.65;0.63;;;7.10;99.90;;;5.67;98.09;100427.91;6317108;22;20010;-82
2023/10/15 03:48:28;;;;;;;7.05;0.60;;;7.10;99.90;;;5.66;98.28;100427.94;6335865;22;20014;-81
2023/10/15 03:50:57;;;;;;;;;;;7.10;99.90;;;5.62;97.93;100429.81;6287045;22;20077;-82
2023/10/15 03:53:34;;;;;;;7.00;0.50;;;7.00;99.90;;;5.57;98.24;100425.63;6285315;22;19903;-82
2023/10/15 03:56:03;;;;;;;5.32;0.75;;;7.00;99.90;;;5.57;98.54;100415.16;6313159;22;20011;-80
2023/10/15 03:58:33;;;;;;;5.82;0.95;;;7.00;99.90;;;5.58;98.30;100427.34;6285203;22;20114;-81
2023/10/15 04:01:17;;;;;;;4.90;0.63;;;7.00;99.90;;;5.58;98.68;100432.56;6312119;22;20005;-79
2023/10/15 04:03:49;;;;;;;5.80;0.52;;;7.00;99.90;;;5.57;98.30;100425.63;6314070;22;20007;-82
2023/10/15 04:06:24;;;;;;;5.78;0.90;;;7.00;99.90;;;5.60;98.29;100436.84;6311454;22;20458;-81
2023/10/15 04:11:44;;;;;;;5.45;0.80;;;7.00;99.90;;;5.57;98.49;100436.06;6341210;22;20030;-82
2023/10/15 04:14:28;;;;;;;3.65;0.40;;;7.00;99.90;;;5.57;98.47;100436.91;6287595;22;20038;-80
2023/10/15 04:16:57;;;;;;;3.60;0.65;;;7.00;99.90;;;5.55;98.20;100443.97;6288421;22;20002;-81
2023/10/15 04:19:29;;;;;;;5.72;1.08;;;6.90;99.90;;;5.52;98.25;100439.66;6311429;22;19999;-82
2023/10/15 04:22:14;;;;;;;2.15;0.63;;;6.90;99.90;;;5.52;98.29;100439.66;6285059;22;20014;-82
2023/10/15 04:24:50;;;;;;;3.75;0.65;;;6.90;99.90;;;5.52;98.24;100441.44;6313742;22;20140;-80
2023/10/15 04:27:17;;;;;;;3.65;0.60;;;6.90;99.90;;;5.51;98.28;100447.56;6311088;22;20003;-79
2023/10/15 04:29:52;;;;;;;3.05;0.63;;;6.90;99.90;;;5.52;97.95;100450.13;6310399;22;20491;-80
2023/10/15 04:35:01;;;;;;;5.10;0.83;;;6.90;99.90;;;5.48;97.97;100451.09;6315045;22;20003;-82
2023/10/15 04:37:29;;;;;;;4.13;0.60;;;6.90;99.90;;;5.48;97.79;100463.31;6310714;22;20244;-82
2023/10/15 04:40:00;;;;;;;3.47;0.55;;;6.90;99.90;;;5.51;97.55;100458.03;6281507;22;20011;-82
2023/10/15 04:45:23;;;;;;;6.32;0.50;;;6.90;99.90;;;5.46;97.41;100463.34;6246229;23;20669;-82
2023/10/15 04:48:12;;;;;;;2.63;0.40;;;6.80;99.90;;;5.42;97.61;100459.16;6194236;23;20016;-81
2023/10/15 04:50:45;;;;;;;2.75;0.60;;;6.80;99.90;;;5.41;97.51;100462.66;6197722;23;20250;-81
2023/10/15 04:55:52;;;;;;;2.05;0.55;;;6.80;99.90;;;5.40;97.66;100458.34;6244420;23;20008;-82
2023/10/15 05:01:04;;;;;;;2.47;0.57;;;6.70;99.90;;;5.34;97.66;100466.34;6207537;23;20087;-81
2023/10/15 05:03:31;;;;;;;3.50;0.40;;;6.80;99.90;;;5.33;97.49;100467.22;6218302;23;20036;-81
2023/10/15 05:06:10;;;;;;;5.15;0.57;;;6.70;99.90;;;5.34;97.75;100471.56;6191854;23;20433;-81
2023/10/15 05:08:38;;;;;;;6.05;0.40;;;6.80;99.90;;;5.31;97.92;100467.31;6193280;23;20460;-82
2023/10/15 05:11:06;;;;;;;2.42;0.30;;;6.70;99.90;;;5.27;97.82;100472.63;6193686;23;20766;-82
2023/10/15 05:13:37;;;;;;;3.55;0.75;;;6.70;99.90;;;5.26;97.66;100469.16;6193028;23;20004;-82
2023/10/15 05:16:02;;;;;;;2.08;0.60;;;6.70;99.90;;;5.26;97.82;100469.16;6219209;23;20662;-82
2023/10/15 05:18:29;;;;;;;1.27;0.40;;;6.70;99.90;;;5.23;97.97;100461.44;6192873;23;20008;-82
2023/10/15 05:20:55;;;;;;;2.45;0.60;;;6.70;99.90;;;5.23;98.18;100461.44;6218623;23;20004;-82
2023/10/15 05:23:22;;;;;;;3.40;0.52;;;6.70;99.90;;;5.25;97.94;100453.56;6278579;22;20012;-81
2023/10/15 05:25:56;;;;;;;1.92;0.60;;;6.70;99.90;;;5.20;98.10;100447.59;6307290;22;20421;-82
2023/10/15 05:28:22;;;;;;;3.38;0.70;;;6.70;99.90;;;5.20;97.97;100455.44;6306354;22;20011;-81
2023/10/15 05:30:49;;;;;;;4.50;0.75;;;6.60;99.90;;;5.24;97.89;100464.91;6307023;22;20453;-82
2023/10/15 05:33:20;;;;;;;5.65;0.60;;;6.60;99.90;;;5.23;98.04;100455.38;6307146;22;20007;-82
2023/10/15 05:35:49;;;;;;;1.70;0.38;;;6.60;99.90;;;5.17;97.64;100458.16;6308241;22;20007;-80
2023/10/15 05:38:16;;;;;;;7.32;0.77;;;6.60;99.90;;;5.20;98.03;100466.72;6309777;22;20070;-82
2023/10/15 05:40:47;;;;;;;3.90;0.68;;;6.70;99.90;;;5.22;97.68;100464.94;6285976;22;20003;-81
2023/10/15 05:43:13;;;;;;;6.35;0.70;;;6.70;99.90;;;5.22;97.63;100467.53;6313009;22;20060;-81
2023/10/15 05:45:39;;;;;;;6.10;0.88;;;6.70;99.90;;;5.23;97.23;100471.03;6311821;22;20002;-82
2023/10/15 05:48:05;;;;;;;3.60;0.50;;;6.70;99.90;;;5.24;96.88;100480.56;6312258;22;20076;-81
2023/10/15 05:50:31;;;;;;;7.10;1.40;;;6.70;99.90;;;5.27;96.69;100485.69;6285220;22;20030;-81
2023/10/15 05:52:56;;;;;;;3.20;0.32;;;6.70;99.90;;;5.26;96.74;100489.19;6312125;22;19999;-82
2023/10/15 05:55:27;;;;;;;2.53;0.50;;;6.70;99.90;;;5.26;97.05;100487.44;6340519;22;20003;-82
2023/10/15 05:57:53;;;;;;;2.75;0.52;;;6.70;99.90;;;5.31;96.58;100495.13;6311471;22;20094;-81
2023/10/15 06:00:19;;;;;;;2.90;0.55;;;6.70;99.90;;;5.31;97.28;100508.19;6285354;22;20014;-81
2023/10/15 06:02:50;;;;;;;4.78;0.80;;;6.70;99.90;;;5.31;96.97;100498.63;6310565;22;20003;-82
2023/10/15 06:05:21;;;;;;;4.38;0.73;;;6.70;99.90;;;5.32;97.08;100502.09;6286022;22;20003;-82
2023/10/15 06:07:48;;;;;;;8.23;1.30;;;6.70;99.90;;;5.30;97.24;100501.28;6284640;22;20007;-82
2023/10/15 06:10:15;;;;;;;3.53;0.55;;;6.70;99.90;;;5.31;97.13;100505.56;6311073;22;20346;-82
2023/10/15 06:12:47;;;;;;;6.18;0.52;;;6.70;99.90;;;5.29;97.59;100504.75;6285419;22;20003;-81
2023/10/15 06:15:15;;;;;;;3.22;0.63;;;6.70;99.90;;;5.30;98.08;100502.13;6285585;22;20022;-82
2023/10/15 06:17:41;;;;;;;4.35;0.70;;;6.70;99.90;;;5.30;97.80;100511.72;6310024;22;20148;-80
2023/10/15 06:20:17;;;;;;;3.75;0.75;;;6.70;99.90;;;5.29;98.25;100507.38;6312170;22;20076;-80
2023/10/15 06:22:45;;;;;;;7.18;0.52;;;6.70;99.90;;;5.31;98.50;100518.63;6315143;22;20163;-80
2023/10/15 06:25:12;;;;;;;5.68;0.82;;;6.70;99.90;;;5.35;98.51;100522.88;6287035;22;20074;-81
2023/10/15 06:27:44;;;;;;;5.15;0.60;;;6.80;99.90;;;5.38;98.47;100519.31;6285394;22;20003;-80
2023/10/15 06:30:15;;;;;;;1.88;0.60;;;6.80;99.90;;;5.41;99.14;100517.47;6284899;22;20346;-81
2023/10/15 06:32:47;;;;;;;7.55;0.80;;;6.80;99.90;;;5.47;99.19;100519.06;6285494;22;20003;-79
2023/10/15 06:35:20;;;;;;;5.43;1.05;;;6.80;99.90;;;5.53;99.18;100524.97;6287371;22;20003;-82
2023/10/15 06:37:57;;;;;;;5.53;1.35;;;6.90;99.90;;;5.58;99.30;100532.66;6286014;22;20006;-81
2023/10/15 06:40:51;;;;;;;3.35;0.77;;;7.00;99.90;;;5.66;99.03;100527.19;6286746;22;20017;-82
2023/10/15 06:43:18;;;;;;;3.83;0.60;;;7.00;99.90;;;5.69;98.60;100527.97;6317768;22;20037;-82
2023/10/15 06:45:44;;;;;;;6.43;0.80;;;7.10;99.90;;;5.74;98.68;100528.72;6337812;22;20280;-82
2023/10/15 06:48:09;;;;;;;3.42;0.50;;;7.10;99.90;;;5.85;98.58;100543.19;6312578;22;20469;-80
2023/10/15 06:50:41;;;;;;;3.50;0.85;;;7.20;99.90;;;5.92;97.96;100540.38;6311260;22;20003;-81
2023/10/15 06:53:10;;;;;;;5.90;1.13;;;7.30;99.90;;;6.05;97.84;100540.03;6311721;22;20002;-82
2023/10/15 06:55:36;;;;;;;2.53;0.60;;;7.40;99.90;;;6.14;97.42;100556.28;6311110;22;20037;-82
2023/10/15 06:58:10;;;;;;;6.25;1.05;;;7.50;99.90;;;6.23;96.28;100559.50;6310972;22;20427;-80
2023/10/15 07:00:36;;;;;;;1.95;0.70;;;7.50;99.90;;;6.31;96.46;100566.22;6285897;22;20007;-82
2023/10/15 07:03:02;;;;;;;10.60;1.20;;;7.60;99.90;;;6.30;95.62;100556.63;6310620;22;20015;-81
2023/10/15 07:05:28;;;;;;;8.23;0.90;;;7.60;99.90;;;6.38;95.11;100561.63;6310829;22;20041;-81
2023/10/15 07:08:00;;;;;;;4.60;0.70;;;7.70;99.90;;;6.43;94.34;100564.09;6284605;22;20013;-82
2023/10/15 07:10:27;;;;;;;5.78;0.70;;;7.70;99.90;;;6.49;93.82;100563.91;6312357;22;20051;-81
2023/10/15 07:12:54;;;;;;;6.68;0.93;;;7.80;99.90;;;6.59;93.68;100570.56;6286531;22;20003;-81
2023/10/15 07:15:20;;;;;;;9.10;1.17;;;7.90;99.90;;;6.73;93.37;100575.34;6286217;22;20003;-81
2023/10/15 07:17:53;;;;;;;4.93;0.90;;;8.10;99.90;;;6.87;93.23;100586.22;6309429;22;20011;-82
2023/10/15 07:20:21;;;;;;;8.32;1.48;;;8.20;99.90;;;6.98;92.28;100580.59;6285823;22;20011;-80
2023/10/15 07:22:51;;;;;;;8.70;0.90;;;8.30;99.90;;;7.10;92.23;100595.88;6311499;22;20076;-80
2023/10/15 07:25:21;;;;;;;5.53;0.90;;;8.40;99.90;;;7.19;91.50;100597.31;6285919;22;20014;-81
2023/10/15 07:27:50;;;;;;;10.05;0.93;;;8.40;99.90;;;7.26;90.67;100606.69;6284457;22;20072;-82
2023/10/15 07:30:21;;;;;;;6.10;0.75;;;8.50;99.90;;;7.32;89.97;100605.63;6284378;22;19999;-81
2023/10/15 07:32:53;;;;;;;9.95;0.90;;;8.60;99.90;;;7.37;89.26;100604.56;6285985;22;20034;-82
2023/10/15 07:35:21;;;;;;;8.80;1.05;;;8.70;99.90;;;7.46;88.60;100611.22;6285472;22;20018;-79
2023/10/15 07:37:52;;;;;;;7.68;0.73;;;8.70;99.90;;;7.55;89.16;100621.38;6284295;22;20014;-81
2023/10/15 07:40:25;;;;;;;7.78;1.25;;;8.80;99.90;;;7.53;87.90;100623.19;6285471;22;20011;-80
2023/10/15 07:42:59;;;;;;;6.43;1.25;;;8.90;99.90;;;7.70;87.57;100625.22;6285341;22;20003;-80
2023/10/15 07:45:27;;;;;;;6.35;0.75;;;9.00;99.90;;;7.81;87.13;100628.28;6311474;22;20002;-82
2023/10/15 07:47:59;;;;;;;3.13;0.70;;;9.10;99.90;;;7.94;86.87;100638.34;6310021;22;20642;-81
2023/10/15 07:50:26;;;;;;;6.18;0.95;;;9.20;99.90;;;8.01;86.95;100653.78;6286093;22;20030;-81
2023/10/15 07:52:53;;;;;;;5.45;0.77;;;9.40;99.90;;;8.21;86.85;100652.19;6284705;22;19998;-80
2023/10/15 07:55:23;;;;;;;5.35;1.02;;;9.50;99.90;;;8.34;87.38;100661.31;6310264;22;20003;-80
2023/10/15 07:57:52;;;;;;;4.32;0.63;;;9.60;99.90;;;8.24;87.29;100682.69;6284717;22;20017;-81
2023/10/15 08:00:39;;;;;;;4.40;1.15;;;9.60;99.90;;;8.19;86.73;100685.50;6310717;22;20056;-80
2023/10/15 08:03:07;;;;;;;5.05;0.80;;;9.50;99.90;;;7.96;85.93;100681.09;6314119;22;20524;-82
2023/10/15 08:05:39;;;;;;;7.93;1.02;;;9.40;99.90;;;7.86;85.59;100683.19;6310481;22;20440;-82
2023/10/15 08:08:05;;;;;;;11.60;1.27;;;9.30;99.90;;;7.67;85.76;100687.38;6310147;22;20010;-82
2023/10/15 08:10:41;;;;;;;5.88;0.80;;;9.20;99.90;;;7.64;85.83;100682.25;6284718;22;20014;-79
2023/10/15 08:13:08;;;;;;;7.47;0.75;;;9.10;99.90;;;7.40;86.24;100666.44;6313150;22;20009;-81
2023/10/15 08:15:34;;;;;;;5.10;0.90;;;8.90;99.90;;;7.16;86.50;100674.22;6309795;22;20691;-81
2023/10/15 08:18:01;;;;;;;8.18;1.00;;;8.80;99.90;;;7.21;87.20;100660.97;6309975;22;20007;-80
2023/10/15 08:20:34;;;;;;;9.77;0.93;;;8.80;99.90;;;7.48;87.90;100655.72;6310156;22;20014;-82
2023/10/15 08:23:01;;;;;;;6.18;1.13;;;8.90;99.90;;;7.76;87.73;100656.44;6309607;22;20139;-80
2023/10/15 08:25:26;;;;;;;5.35;1.23;;;9.20;99.90;;;8.13;87.95;100646.38;6309703;22;20018;-82
2023/10/15 08:27:52;;;;;;;10.73;1.10;;;9.40;99.90;;;8.47;86.39;100659.09;6282994;22;20438;-81
2023/10/15 08:30:30;;;;;;;6.32;1.10;;;9.70;99.90;;;8.87;84.66;100668.00;6284155;22;20006;-81
2023/10/15 08:32:56;;;;;;;5.82;1.10;;;10.10;99.90;;;9.28;83.91;100675.09;6310113;22;20097;-81
2023/10/15 08:35:21;;;;;;;5.70;1.00;;;10.50;99.90;;;9.54;82.50;100680.09;6282959;22;20014;-79
2023/10/15 08:37:51;;;;;;;6.80;1.23;;;10.70;99.90;;;9.76;82.13;100680.03;6283223;22;20021;-81
2023/10/15 08:40:17;;;;;;;9.43;1.38;;;10.90;99.90;;;9.87;79.56;100682.19;6284097;22;20017;-80
2023/10/15 08:42:55;;;;;;;6.07;1.20;;;11.10;99.90;;;10.05;78.82;100686.63;6309430;22;20006;-81
2023/10/15 08:45:25;;;;;;;9.27;1.73;;;11.20;99.90;;;9.99;78.43;100696.56;6309942;22;20060;-80
2023/10/15 08:47:53;;;;;;;13.57;1.50;;;11.20;99.90;;;10.11;77.56;100700.41;6283324;22;20045;-79
2023/10/15 08:50:27;;;;;;;8.38;1.40;;;11.30;99.90;;;10.10;78.07;100693.44;6283685;22;20320;-79
2023/10/15 08:52:55;;;;;;;7.47;1.60;;;11.40;99.90;;;10.09;76.46;100695.22;6312230;22;20438;-80
2023/10/15 08:55:44;;;;;;;7.15;1.42;;;11.30;99.90;;;9.82;76.81;100692.03;6309690;22;20003;-79
2023/10/15 08:58:09;;;;;;;7.43;1.38;;;11.30;99.90;;;10.02;76.79;100694.66;6313063;22;20032;-81
2023/10/15 09:00:45;;;;;;;8.23;1.45;;;11.30;99.90;;;10.18;75.45;100700.06;6284581;22;20025;-81
2023/10/15 09:03:14;;;;;;;7.65;1.45;;;11.40;99.90;;;10.33;75.74;100706.44;6286900;22;20351;-79
2023/10/15 09:05:45;;;;;;;7.10;1.20;;;11.50;99.90;;;10.26;75.86;100711.09;6284075;22;20007;-80
2023/10/15 09:08:17;;;;;;;8.75;1.65;;;11.60;99.90;;;10.39;76.00;100721.13;6310592;22;20060;-81
2023/10/15 09:10:43;;;;;;;10.93;1.35;;;11.70;99.90;;;10.46;75.59;100720.75;6284729;22;20070;-82
2023/10/15 09:13:23;;;;;;;8.45;1.80;;;11.60;99.90;;;10.36;74.38;100722.09;6284757;22;20562;-82
2023/10/15 09:15:55;;;;;;;12.02;1.60;;;11.60;99.90;;;10.40;73.96;100721.03;6287111;22;19999;-80
2023/10/15 09:18:25;;;;;;;6.95;1.27;;;11.60;99.90;;;10.41;74.05;100722.75;6286973;22;20022;-81
2023/10/15 09:20:58;;;;;;;9.25;1.75;;;11.70;99.90;;;10.50;75.28;100729.38;6282735;22;20014;-80
2023/10/15 09:23:36;;;;;;;9.18;1.52;;;11.70;99.90;;;10.44;75.03;100730.50;6285845;22;20014;-81
2023/10/15 09:26:16;;;;;;;8.35;1.65;;;11.70;99.90;;;10.57;75.10;100729.94;6286221;22;20103;-81
2023/10/15 09:28:51;;;;;;;8.55;1.73;;;11.80;99.90;;;10.60;75.10;100732.41;6309182;22;20071;-80
2023/10/15 09:31:18;;;;;;;9.07;1.13;;;11.80;99.90;;;10.64;73.18;100720.81;6288083;22;20009;-80
2023/10/15 09:33:51;;;;;;;15.52;1.73;;;11.80;99.90;;;10.49;72.37;100718.91;6311649;22;19998;-81
2023/10/15 09:36:17;;;;;;;5.47;1.02;;;11.70;99.90;;;10.39;72.34;100729.00;6286073;22;20091;-80
2023/10/15 09:38:43;;;;;;;9.63;1.65;;;11.60;99.90;;;10.19;73.15;100728.06;6303377;22;20438;-81
2023/10/15 09:41:12;;;;;;;4.45;0.73;;;11.60;99.90;;;10.27;73.15;100727.75;6280709;22;20007;-81
2023/10/15 09:43:48;;;;;;;10.30;1.30;;;11.50;99.90;;;10.23;73.31;100726.16;6279330;22;20015;-80
2023/10/15 09:46:20;;;;;;;8.07;1.25;;;11.60;99.90;;;10.39;74.43;100731.66;6305765;22;20007;-81
2023/10/15 09:48:50;;;;;;;4.90;1.00;;;11.70;99.90;;;10.49;74.01;100737.31;6280440;22;20004;-82
2023/10/15 09:51:16;;;;;;;8.27;1.67;;;11.80;99.90;;;10.62;73.69;100736.69;6305268;22;20025;-81
2023/10/15 09:53:43;;;;;;;7.32;1.73;;;11.80;99.90;;;10.58;72.25;100737.78;6278361;22;20011;-81
2023/10/15 09:56:19;;;;;;;7.50;1.15;;;11.70;99.90;;;10.50;72.72;100736.41;6309078;22;20014;-80
2023/10/15 09:58:48;;;;;;;9.48;1.20;;;11.70;99.90;;;10.43;73.13;100728.81;6305967;22;20042;-81
2023/10/15 10:01:36;;;;;;;12.00;1.20;;;11.70;99.90;;;10.33;72.50;100724.03;6282346;22;20014;-80
2023/10/15 10:04:35;;;;;;;5.55;0.90;;;11.50;99.90;;;10.16;72.42;100730.00;6285622;22;20094;-79
2023/10/15 10:07:48;;;;;;;13.23;1.70;;;11.60;99.90;;;10.24;73.68;100730.53;6308377;22;20006;-82
2023/10/15 10:11:16;;;;;;;9.35;1.20;;;11.50;99.90;;;10.23;72.81;100726.16;6307842;22;20011;-81
2023/10/15 10:14:29;;;;;;;6.88;1.02;;;11.60;99.90;;;10.29;73.15;100733.81;6306923;22;20037;-80
2023/10/15 10:16:56;;;;;;;12.23;1.98;;;11.50;99.90;;;10.19;73.17;100730.72;6304179;22;20003;-81
2023/10/15 10:19:31;;;;;;;9.05;1.77;;;11.50;99.90;;;10.15;73.54;100728.28;6307666;22;20019;-80
2023/10/15 10:21:58;;;;;;;16.05;1.95;;;11.50;99.90;;;10.23;73.89;100728.81;6309223;22;20017;-81
2023/10/15 10:24:48;;;;;;;11.65;1.45;;;11.50;99.90;;;10.24;73.87;100736.63;6280077;22;20435;-81
2023/10/15 10:27:18;;;;;;;15.00;1.85;;;11.50;99.90;;;10.30;73.88;100735.53;6286476;22;20064;-81
2023/10/15 10:29:53;;;;;;;11.25;1.60;;;11.60;99.90;;;10.43;74.76;100728.81;6305808;22;20011;-81
2023/10/15 10:32:22;;;;;;;9.82;1.70;;;11.60;99.90;;;10.43;73.78;100733.19;6305992;22;20074;-81
2023/10/15 10:35:18;;;;;;;13.70;1.73;;;11.60;99.90;;;10.20;72.40;100736.84;6305894;22;20003;-80
2023/10/15 10:38:31;;;;;;;10.85;1.80;;;11.50;99.90;;;10.22;72.55;100730.59;6280048;22;20486;-81
2023/10/15 10:41:07;;;;;;;14.93;1.60;;;11.50;99.90;;;10.19;73.10;100732.50;6291401;22;20022;-81
2023/10/15 10:43:37;;;;;;;11.88;1.65;;;11.40;99.90;;;10.11;71.89;100732.84;6308776;22;20443;-80
2023/10/15 10:46:12;;;;;;;13.45;1.55;;;11.40;99.90;;;10.05;72.71;100736.59;6282359;22;20112;-82
2023/10/15 10:48:48;;;;;;;12.00;1.90;;;11.40;99.90;;;10.09;73.24;100733.84;6306979;22;20003;-81
2023/10/15 10:51:30;;;;;;;11.27;1.80;;;11.30;99.90;;;10.17;74.19;100734.34;6307855;22;20004;-82
2023/10/15 10:53:56;;;;;;;9.63;1.67;;;11.40;99.90;;;10.27;73.83;100728.59;6307152;22;20049;-81
2023/10/15 10:56:25;;;;;;;14.98;1.92;;;11.50;99.90;;;10.37;75.13;100723.81;6306889;22;20003;-79
2023/10/15 10:59:00;;;;;;;21.63;2.45;;;11.60;99.90;;;10.42;75.04;100720.97;6285593;22;20337;-79
2023/10/15 11:01:39;;;;;;;14.47;1.87;;;11.60;99.90;;;10.49;74.73;100719.75;6283507;22;20007;-82
2023/10/15 11:04:17;;;;;;;6.07;0.95;;;11.60;99.90;;;10.35;72.65;100720.41;6282853;22;20003;-80
2023/10/15 11:06:46;;;;;;;8.23;1.58;;;11.60;99.90;;;10.42;73.71;100724.44;6254455;22;20010;-81
2023/10/15 11:10:05;;;;;;;;;;;;;;;;;;;;;
2023/10/15 11:12:18;;;;;;;11.70;1.92;;;11.60;99.90;;;10.40;72.87;100722.81;6237791;22;20038;-80
2023/10/15 11:14:44;;;;;;;11.07;2.63;;;11.60;99.90;;;10.35;72.79;100716.91;6227220;22;20008;-82
2023/10/15 11:17:10;;;;;;;14.63;2.05;;;11.60;99.90;;;10.42;73.54;100713.91;6250073;22;20004;-81
2023/10/15 11:19:37;;;;;;;13.07;1.85;;;11.70;99.90;;;10.54;74.66;100727.44;6223899;22;20089;-81